Time;durP1;ratioP1;P1;durP2;ratioP2;P2;SDS_P1;SDS_P2;PMS_P1;PMS_P2;Temp;Humidity;BMP_temperature;BMP_pressure;BME280_temperature;BME280_humidity;BME280_pressure;Samples;Min_cycle;Max_cycle;Signal;HPM_P1;HPM_P2
2022/01/02 00:01:20;;;;;;;6.25;2.22;;;13.90;99.90;;;;;;4955906;28;20273;-86
2022/01/02 00:03:51;;;;;;;5.63;2.40;;;14.00;99.90;;;;;;4955926;28;20187;-78
2022/01/02 00:06:23;;;;;;;6.32;2.72;;;14.10;99.90;;;;;;4956040;28;20224;-78
2022/01/02 00:08:57;;;;;;;8.10;2.95;;;14.00;99.90;;;;;;4955649;28;20187;-77
2022/01/02 00:11:24;;;;;;;8.25;2.42;;;14.10;99.90;;;;;;4955642;28;20201;-78
2022/01/02 00:13:55;;;;;;;6.50;1.92;;;14.30;99.90;;;;;;4955895;28;20186;-78
2022/01/02 00:16:23;;;;;;;6.75;2.42;;;14.50;99.90;;;;;;4955706;28;20186;-79
2022/01/02 00:19:03;;;;;;;5.05;2.70;;;14.50;99.90;;;;;;4955684;28;20183;-78
2022/01/02 00:21:32;;;;;;;5.47;1.98;;;14.40;99.90;;;;;;4970568;28;20170;-77
2022/01/02 00:24:07;;;;;;;6.88;2.88;;;14.20;99.90;;;;;;4955755;28;20159;-78
2022/01/02 00:26:38;;;;;;;6.35;2.50;;;14.30;99.90;;;;;;4955787;28;20170;-79
2022/01/02 00:29:05;;;;;;;8.35;2.53;;;14.20;99.90;;;;;;4955668;28;20182;-77
2022/01/02 00:31:32;;;;;;;4.60;2.92;;;14.30;99.90;;;;;;4955349;28;20197;-78
2022/01/02 00:34:02;;;;;;;7.10;2.78;;;14.40;99.90;;;;;;4955062;28;20620;-78
2022/01/02 00:36:27;;;;;;;5.38;1.80;;;14.40;99.90;;;;;;4955201;28;20179;-78
2022/01/02 00:38:54;;;;;;;6.75;1.95;;;14.30;99.90;;;;;;4955224;28;20346;-78
2022/01/02 00:41:26;;;;;;;2.92;2.60;;;14.30;99.90;;;;;;4970147;28;20198;-77
2022/01/02 00:44:02;;;;;;;5.68;2.15;;;14.40;99.90;;;;;;4955177;28;20178;-78
2022/01/02 00:46:30;;;;;;;8.13;2.42;;;14.40;99.90;;;;;;4955398;28;20686;-77
2022/01/02 00:49:02;;;;;;;10.93;2.50;;;14.40;99.90;;;;;;4955085;28;20237;-77
2022/01/02 00:51:47;;;;;;;8.43;2.47;;;14.20;99.90;;;;;;4955252;28;20524;-77
2022/01/02 00:54:17;;;;;;;8.68;2.72;;;14.20;99.90;;;;;;4955176;29;20212;-77
2022/01/02 00:56:45;;;;;;;3.17;2.13;;;14.10;99.90;;;;;;4955004;28;20194;-78
2022/01/02 00:59:21;;;;;;;8.63;2.63;;;14.00;99.90;;;;;;4955502;28;20213;-78
2022/01/02 01:01:50;;;;;;;3.35;2.25;;;13.90;99.90;;;;;;4955126;28;20170;-78
2022/01/02 01:04:19;;;;;;;13.63;2.60;;;14.10;99.90;;;;;;4954769;28;20202;-78
2022/01/02 01:06:49;;;;;;;5.85;2.58;;;14.00;99.90;;;;;;4954800;28;20166;-77
2022/01/02 01:09:17;;;;;;;4.03;2.35;;;13.90;99.90;;;;;;4954609;28;20197;-78
2022/01/02 01:11:45;;;;;;;11.82;2.63;;;13.90;99.90;;;;;;4954879;28;20214;-78
2022/01/02 01:14:11;;;;;;;4.68;2.67;;;14.00;99.90;;;;;;4954929;28;20170;-78
2022/01/02 01:16:37;;;;;;;5.80;2.80;;;13.90;99.90;;;;;;4955057;28;20290;-78
2022/01/02 01:19:02;;;;;;;5.72;2.75;;;13.80;99.90;;;;;;4954489;28;20727;-80
2022/01/02 01:21:29;;;;;;;4.75;3.08;;;13.90;99.90;;;;;;4969846;28;20174;-77
2022/01/02 01:23:54;;;;;;;5.60;2.90;;;14.00;99.90;;;;;;4954834;28;20171;-77
2022/01/02 01:26:20;;;;;;;6.88;2.70;;;13.90;99.90;;;;;;4954868;28;20174;-77
2022/01/02 01:28:46;;;;;;;6.03;2.58;;;13.80;99.90;;;;;;4954337;28;20190;-77
2022/01/02 01:31:11;;;;;;;6.25;2.88;;;13.70;99.90;;;;;;4955902;28;20175;-77
2022/01/02 01:33:37;;;;;;;17.05;2.70;;;13.70;99.90;;;;;;4961789;28;20187;-78
2022/01/02 01:36:03;;;;;;;10.80;3.10;;;13.80;99.90;;;;;;4957058;28;20527;-80
2022/01/02 01:38:29;;;;;;;4.55;2.65;;;13.60;99.90;;;;;;4960110;28;20197;-78
2022/01/02 01:41:00;;;;;;;8.88;3.20;;;13.60;99.90;;;;;;4960585;28;20206;-78
2022/01/02 01:43:52;;;;;;;4.57;2.38;;;13.60;99.90;;;;;;4959324;28;20214;-78
2022/01/02 01:46:18;;;;;;;5.97;2.72;;;13.60;99.90;;;;;;4960297;28;20190;-78
2022/01/02 01:48:51;;;;;;;13.20;3.05;;;13.70;99.90;;;;;;4974195;28;20187;-78
2022/01/02 01:51:17;;;;;;;4.15;2.40;;;13.80;99.90;;;;;;4959263;28;20635;-78
2022/01/02 01:53:43;;;;;;;7.20;2.65;;;13.70;99.90;;;;;;4959869;28;20202;-77
2022/01/02 01:56:08;;;;;;;7.32;2.70;;;13.70;99.90;;;;;;4960779;28;20197;-78
2022/01/02 01:58:34;;;;;;;7.47;3.08;;;13.60;99.90;;;;;;4962485;28;20190;-78
2022/01/02 02:01:01;;;;;;;4.22;2.60;;;13.60;99.90;;;;;;4961817;28;20708;-77
2022/01/02 02:03:27;;;;;;;8.35;2.97;;;13.50;99.90;;;;;;4960770;28;20179;-78
2022/01/02 02:05:52;;;;;;;10.85;3.15;;;13.40;99.90;;;;;;4983328;28;20171;-77
2022/01/02 02:08:20;;;;;;;7.18;2.05;;;13.30;99.90;;;;;;4965095;28;20174;-77
2022/01/02 02:10:54;;;;;;;4.05;2.15;;;13.30;99.90;;;;;;4959426;28;20218;-84
2022/01/02 02:13:20;;;;;;;5.93;2.60;;;13.40;99.90;;;;;;4959678;28;20198;-78
2022/01/02 02:15:46;;;;;;;8.48;2.83;;;13.30;99.90;;;;;;4960808;28;20647;-77
2022/01/02 02:18:11;;;;;;;8.98;2.30;;;13.40;99.90;;;;;;4960004;28;20177;-78
2022/01/02 02:20:37;;;;;;;4.00;2.50;;;13.50;99.90;;;;;;4960267;28;20293;-77
2022/01/02 02:23:04;;;;;;;5.97;3.28;;;13.50;99.90;;;;;;4960533;28;20163;-78
2022/01/02 02:25:36;;;;;;;3.38;2.47;;;13.40;99.90;;;;;;4974502;28;20179;-77
2022/01/02 02:28:11;;;;;;;7.07;2.50;;;13.50;99.90;;;;;;4959031;28;20197;-77
2022/01/02 02:30:38;;;;;;;3.30;2.58;;;13.50;99.90;;;;;;4957619;28;20178;-77
2022/01/02 02:33:05;;;;;;;4.22;2.50;;;13.40;99.90;;;;;;4958255;28;20175;-77
2022/01/02 02:35:33;;;;;;;6.53;2.72;;;13.50;99.90;;;;;;4957641;28;20189;-76
2022/01/02 02:37:59;;;;;;;6.75;2.50;;;13.50;99.90;;;;;;4957938;28;20177;-78
2022/01/02 02:40:28;;;;;;;5.97;2.53;;;13.40;99.90;;;;;;4957750;28;20206;-78
2022/01/02 02:43:05;;;;;;;6.18;2.28;;;13.40;99.90;;;;;;4965841;28;20569;-78
2022/01/02 02:51:07;;;;;;;8.60;2.60;;;13.30;99.90;;;;;;4966959;28;20281;-78
2022/01/02 02:53:35;;;;;;;7.63;3.08;;;13.20;99.90;;;;;;4971989;28;20170;-78
2022/01/02 02:56:02;;;;;;;10.25;2.42;;;13.20;99.90;;;;;;4957060;28;20190;-78
2022/01/02 03:01:00;;;;;;;12.43;2.83;;;13.30;99.90;;;;;;4956657;28;20210;-77
2022/01/02 03:03:26;;;;;;;3.60;2.55;;;13.40;99.90;;;;;;4956701;28;20182;-79
2022/01/02 03:05:52;;;;;;;6.10;2.17;;;13.30;99.90;;;;;;4955752;28;20201;-80
2022/01/02 03:08:18;;;;;;;8.82;2.17;;;13.10;99.90;;;;;;4956577;28;20221;-78
2022/01/02 03:10:43;;;;;;;4.60;2.42;;;13.10;99.90;;;;;;4956660;28;20163;-78
2022/01/02 03:13:09;;;;;;;4.85;2.13;;;13.20;99.90;;;;;;4956648;28;20631;-77
2022/01/02 03:15:35;;;;;;;3.38;2.40;;;13.20;99.90;;;;;;4956567;28;20177;-78
2022/01/02 03:18:00;;;;;;;12.38;2.78;;;13.20;99.90;;;;;;4956520;28;20179;-78
2022/01/02 03:20:26;;;;;;;6.63;2.38;;;13.30;99.90;;;;;;4956345;28;20300;-81
2022/01/02 03:22:51;;;;;;;2.83;2.08;;;13.30;99.90;;;;;;4956540;28;20609;-79
2022/01/02 03:25:17;;;;;;;2.72;2.17;;;13.30;99.90;;;;;;4956389;28;20182;-77
2022/01/02 03:27:44;;;;;;;2.83;2.25;;;13.20;99.90;;;;;;4956640;28;20262;-78
2022/01/02 03:30:11;;;;;;;3.20;2.17;;;13.10;99.90;;;;;;4956552;28;20195;-78
2022/01/02 03:32:37;;;;;;;6.97;2.60;;;13.00;99.90;;;;;;4956508;28;20213;-78
2022/01/02 03:35:04;;;;;;;7.22;2.13;;;13.10;99.90;;;;;;4956249;28;20201;-78
2022/01/02 03:37:32;;;;;;;4.28;2.33;;;13.20;99.90;;;;;;4956172;28;20170;-78
2022/01/02 03:39:58;;;;;;;3.47;2.17;;;13.30;99.90;;;;;;4954690;28;20210;-78
2022/01/02 03:42:24;;;;;;;6.55;2.42;;;13.40;99.90;;;;;;4955749;28;20171;-78
2022/01/02 03:44:50;;;;;;;3.70;1.92;;;13.20;99.90;;;;;;4956144;28;20170;-77
2022/01/02 03:47:15;;;;;;;9.25;2.55;;;13.20;99.90;;;;;;4955929;28;20249;-79
2022/01/02 03:49:41;;;;;;;2.20;2.00;;;13.10;99.90;;;;;;4955488;28;20198;-78
2022/01/02 03:52:08;;;;;;;4.07;2.20;;;13.20;99.90;;;;;;4955828;28;20640;-78
2022/01/02 03:54:34;;;;;;;5.28;2.63;;;13.20;99.90;;;;;;4956111;28;20183;-78
2022/01/02 03:57:00;;;;;;;8.30;2.10;;;13.10;99.90;;;;;;4956227;28;20190;-78
2022/01/02 03:59:25;;;;;;;8.88;2.15;;;13.10;99.90;;;;;;4955702;28;20248;-78
2022/01/02 04:01:51;;;;;;;2.45;1.88;;;13.20;99.90;;;;;;4955432;28;20179;-79
2022/01/02 04:04:17;;;;;;;11.57;2.20;;;13.40;99.90;;;;;;4955564;28;20174;-77
2022/01/02 04:06:43;;;;;;;5.07;2.50;;;13.30;99.90;;;;;;4955782;28;20250;-78
2022/01/02 04:09:08;;;;;;;2.03;1.60;;;13.30;99.90;;;;;;4955500;28;20190;-82
2022/01/02 04:11:34;;;;;;;4.65;2.10;;;13.40;99.90;;;;;;4956715;28;20695;-78
2022/01/02 04:13:59;;;;;;;2.35;1.95;;;13.40;99.90;;;;;;4967703;28;20202;-78
2022/01/02 04:16:25;;;;;;;4.57;1.88;;;13.60;99.90;;;;;;4964161;28;20178;-78
2022/01/02 04:18:51;;;;;;;5.97;2.17;;;13.70;99.90;;;;;;4955870;28;20194;-80
2022/01/02 04:21:17;;;;;;;5.95;2.45;;;13.60;99.90;;;;;;4955377;28;20210;-78
2022/01/02 04:23:42;;;;;;;5.40;2.28;;;13.80;99.90;;;;;;4955476;28;20186;-78
2022/01/02 04:26:08;;;;;;;4.10;2.40;;;13.80;99.90;;;;;;4955339;28;20226;-78
2022/01/02 04:28:34;;;;;;;2.50;2.10;;;13.90;99.90;;;;;;4954841;28;20644;-78
2022/01/02 04:31:00;;;;;;;3.85;2.42;;;13.90;99.90;;;;;;4955042;28;20170;-79
2022/01/02 04:33:25;;;;;;;4.00;1.80;;;13.90;99.90;;;;;;4954857;28;20250;-78
2022/01/02 04:35:51;;;;;;;8.18;2.35;;;13.70;99.90;;;;;;4954894;28;20316;-78
2022/01/02 04:38:17;;;;;;;9.60;2.13;;;13.70;99.90;;;;;;4954867;28;20167;-79
2022/01/02 04:40:43;;;;;;;6.63;2.40;;;13.70;99.90;;;;;;4954905;28;20242;-89
2022/01/02 04:43:08;;;;;;;4.80;2.30;;;13.60;99.90;;;;;;4954770;28;20253;-78
2022/01/02 04:45:34;;;;;;;4.03;1.88;;;13.60;99.90;;;;;;4954918;28;20192;-78
2022/01/02 04:48:00;;;;;;;6.10;2.42;;;13.80;99.90;;;;;;4954736;28;20162;-79
2022/01/02 04:50:25;;;;;;;10.65;2.15;;;13.80;99.90;;;;;;4954673;28;20190;-78
2022/01/02 04:52:51;;;;;;;9.25;2.25;;;13.90;99.90;;;;;;4954621;28;20229;-78
2022/01/02 04:55:17;;;;;;;15.18;2.35;;;14.00;99.90;;;;;;4969245;28;20654;-78
2022/01/02 04:57:43;;;;;;;4.68;2.03;;;13.90;99.90;;;;;;4954779;28;20198;-78
2022/01/02 05:00:09;;;;;;;4.22;1.50;;;13.90;99.90;;;;;;4954688;28;20234;-78
2022/01/02 05:02:35;;;;;;;3.38;1.85;;;13.90;99.90;;;;;;4954852;28;20174;-79
2022/01/02 05:05:00;;;;;;;2.30;1.70;;;14.00;99.90;;;;;;4955387;28;20177;-78
2022/01/02 05:07:26;;;;;;;4.68;2.35;;;13.80;99.90;;;;;;4970854;28;20166;-77
2022/01/02 05:09:52;;;;;;;8.95;2.25;;;13.70;99.90;;;;;;4956889;28;20194;-79
2022/01/02 05:12:17;;;;;;;5.60;2.00;;;13.80;99.90;;;;;;4960004;28;20162;-78
2022/01/02 05:14:43;;;;;;;7.90;2.00;;;14.00;99.90;;;;;;4956827;28;20620;-77
2022/01/02 05:17:09;;;;;;;2.08;1.60;;;13.70;99.90;;;;;;4956117;28;20175;-77
2022/01/02 05:19:34;;;;;;;6.88;2.00;;;13.70;99.90;;;;;;4955866;28;20206;-77
2022/01/02 05:22:00;;;;;;;6.32;2.28;;;13.60;99.90;;;;;;4956422;28;20186;-78
2022/01/02 05:24:26;;;;;;;2.50;2.22;;;13.60;99.90;;;;;;4956652;28;20167;-77
2022/01/02 05:26:53;;;;;;;4.43;1.75;;;13.60;99.90;;;;;;4955469;28;20225;-77
2022/01/02 05:29:19;;;;;;;4.25;2.15;;;13.40;99.90;;;;;;4957431;28;20192;-78
2022/01/02 05:31:45;;;;;;;4.93;1.80;;;13.20;99.90;;;;;;4958544;28;20253;-78
2022/01/02 05:34:11;;;;;;;3.67;2.85;;;13.20;99.90;;;;;;4973214;28;20174;-78
2022/01/02 05:36:36;;;;;;;5.70;2.25;;;13.20;99.90;;;;;;4958447;28;20198;-77
2022/01/02 05:39:03;;;;;;;5.88;2.10;;;13.20;99.90;;;;;;4957678;28;20301;-77
2022/01/02 05:41:30;;;;;;;2.42;2.05;;;13.20;99.90;;;;;;4957449;28;20173;-77
2022/01/02 05:43:56;;;;;;;2.80;2.25;;;13.30;99.90;;;;;;4958139;28;20171;-77
2022/01/02 05:46:21;;;;;;;4.85;1.73;;;13.30;99.90;;;;;;4957761;28;20173;-77
2022/01/02 05:48:47;;;;;;;3.17;2.10;;;13.40;99.90;;;;;;4957932;28;20226;-77
2022/01/02 05:51:13;;;;;;;2.42;2.22;;;13.40;99.90;;;;;;4957978;28;20261;-77
2022/01/02 05:53:38;;;;;;;3.25;2.00;;;13.40;99.90;;;;;;4957789;28;20174;-77
2022/01/02 05:56:04;;;;;;;6.65;2.13;;;13.50;99.90;;;;;;4957140;28;20201;-77
2022/01/02 05:58:30;;;;;;;4.45;2.03;;;13.60;99.90;;;;;;4957676;28;20654;-77
2022/01/02 06:00:56;;;;;;;3.60;2.08;;;13.70;99.90;;;;;;4957743;28;20202;-77
2022/01/02 06:03:21;;;;;;;1.73;1.52;;;13.80;99.90;;;;;;4972522;28;20252;-77
2022/01/02 06:05:47;;;;;;;2.55;1.73;;;13.90;99.90;;;;;;4957334;28;20174;-77
2022/01/02 06:08:13;;;;;;;2.95;1.70;;;13.80;99.90;;;;;;4957730;28;20178;-78
2022/01/02 06:10:39;;;;;;;3.65;2.30;;;13.80;99.90;;;;;;4957414;28;20655;-77
2022/01/02 06:13:04;;;;;;;2.63;1.85;;;13.80;99.90;;;;;;4957531;28;20630;-76
2022/01/02 06:15:30;;;;;;;4.13;1.75;;;13.80;99.90;;;;;;4972129;28;20202;-77
2022/01/02 06:17:56;;;;;;;3.65;2.03;;;13.80;99.90;;;;;;4957224;28;20170;-76
2022/01/02 06:20:21;;;;;;;6.15;1.67;;;13.80;99.90;;;;;;4957335;28;20327;-85
2022/01/02 06:22:47;;;;;;;2.65;1.33;;;13.80;99.90;;;;;;4957318;28;20174;-77
2022/01/02 06:25:12;;;;;;;3.53;1.83;;;13.70;99.90;;;;;;4957407;28;20515;-77
2022/01/02 06:27:39;;;;;;;5.95;1.80;;;13.60;99.90;;;;;;4957259;28;20620;-77
2022/01/02 06:30:05;;;;;;;3.67;1.95;;;13.70;99.90;;;;;;4957231;28;20191;-77
2022/01/02 06:32:31;;;;;;;3.67;1.98;;;13.70;99.90;;;;;;4972020;28;20169;-77
2022/01/02 06:34:56;;;;;;;3.33;2.00;;;13.60;99.90;;;;;;4957075;28;20186;-77
2022/01/02 06:37:22;;;;;;;5.03;2.60;;;13.70;99.90;;;;;;4956944;28;20170;-77
2022/01/02 06:39:48;;;;;;;2.83;1.75;;;13.70;99.90;;;;;;4956588;28;20761;-77
2022/01/02 06:42:13;;;;;;;4.68;1.83;;;13.70;99.90;;;;;;4956864;28;20205;-77
2022/01/02 06:44:39;;;;;;;3.30;1.70;;;13.70;99.90;;;;;;4956837;28;20706;-76
2022/01/02 06:47:04;;;;;;;5.57;1.80;;;13.80;99.90;;;;;;4956743;28;20201;-77
2022/01/02 06:49:30;;;;;;;4.10;1.65;;;13.90;99.90;;;;;;4956475;28;20190;-77
2022/01/02 06:51:56;;;;;;;3.60;1.85;;;14.00;99.90;;;;;;4956418;28;20638;-77
2022/01/02 06:54:21;;;;;;;4.00;1.70;;;14.00;99.90;;;;;;4956179;28;20190;-76
2022/01/02 06:56:47;;;;;;;2.33;1.88;;;14.10;99.90;;;;;;4956423;28;20181;-77
2022/01/02 06:59:12;;;;;;;7.18;1.60;;;14.20;99.90;;;;;;4956805;28;20671;-77
2022/01/02 07:01:38;;;;;;;5.55;1.52;;;14.10;99.90;;;;;;4971711;28;20520;-78
2022/01/02 07:04:03;;;;;;;5.28;2.05;;;14.10;99.90;;;;;;4956755;28;20635;-78
2022/01/02 07:06:29;;;;;;;1.88;1.30;;;14.10;99.90;;;;;;4956899;28;20666;-79
2022/01/02 07:08:55;;;;;;;2.45;1.50;;;14.10;99.90;;;;;;4956033;28;20189;-78
2022/01/02 07:11:20;;;;;;;5.35;2.95;;;13.90;99.90;;;;;;4955681;28;20229;-82
2022/01/02 07:13:46;;;;;;;1.60;1.50;;;13.80;99.90;;;;;;4955057;28;20595;-86
2022/01/02 07:16:11;;;;;;;3.10;1.83;;;13.70;99.90;;;;;;4970878;28;20233;-78
2022/01/02 07:18:37;;;;;;;5.55;1.77;;;13.80;99.90;;;;;;4956216;28;20195;-78
2022/01/02 07:21:02;;;;;;;5.18;1.83;;;13.90;99.90;;;;;;4955966;28;20737;-79
2022/01/02 07:23:28;;;;;;;7.75;1.35;;;13.70;99.90;;;;;;4956482;28;20167;-78
2022/01/02 07:25:54;;;;;;;5.82;1.50;;;13.70;99.90;;;;;;4955986;28;20166;-78
2022/01/02 07:28:21;;;;;;;3.67;1.75;;;13.60;99.90;;;;;;4956742;28;20597;-78
2022/01/02 07:30:46;;;;;;;4.00;1.83;;;13.50;99.90;;;;;;4956512;28;20285;-78
2022/01/02 07:33:12;;;;;;;2.85;1.67;;;13.50;99.90;;;;;;4955875;28;20261;-78
2022/01/02 07:35:38;;;;;;;2.15;1.80;;;13.50;99.90;;;;;;4956319;28;20193;-78
2022/01/02 07:38:03;;;;;;;5.25;1.98;;;13.40;99.90;;;;;;4956272;28;20190;-80
2022/01/02 07:40:30;;;;;;;9.50;2.83;;;13.40;99.90;;;;;;4955587;28;20222;-77
2022/01/02 07:42:55;;;;;;;10.68;1.88;;;13.50;99.90;;;;;;4955833;28;20167;-78
2022/01/02 07:45:21;;;;;;;4.45;2.17;;;13.40;99.90;;;;;;4956003;28;20170;-79
2022/01/02 07:47:47;;;;;;;1.80;1.70;;;13.40;99.90;;;;;;4956049;28;20175;-78
2022/01/02 07:50:13;;;;;;;2.85;2.33;;;13.40;99.90;;;;;;4955411;28;20201;-79
2022/01/02 07:52:39;;;;;;;2.00;1.60;;;13.40;99.90;;;;;;4971323;28;20178;-78
2022/01/02 07:55:05;;;;;;;3.47;1.92;;;13.30;99.90;;;;;;4956480;28;20178;-83
2022/01/02 07:57:31;;;;;;;3.47;2.35;;;13.30;99.90;;;;;;4961117;28;20175;-79
2022/01/02 07:59:56;;;;;;;2.05;1.85;;;13.30;99.90;;;;;;4981794;28;20249;-78
2022/01/02 08:02:22;;;;;;;5.72;1.90;;;13.40;99.90;;;;;;4966579;28;20163;-77
2022/01/02 08:04:49;;;;;;;5.28;2.10;;;13.40;99.90;;;;;;4965990;28;20203;-78
2022/01/02 08:07:14;;;;;;;7.60;2.50;;;13.40;99.90;;;;;;4964899;28;20170;-78
2022/01/02 08:09:40;;;;;;;5.53;2.08;;;13.40;99.90;;;;;;4955337;28;20738;-79
2022/01/02 08:12:05;;;;;;;2.67;2.13;;;13.40;99.90;;;;;;4956219;28;20171;-78
2022/01/02 08:14:31;;;;;;;4.07;2.38;;;13.50;99.90;;;;;;4970032;28;20210;-79
2022/01/02 08:16:57;;;;;;;3.92;2.35;;;13.40;99.90;;;;;;4969904;28;20202;-79
2022/01/02 08:19:22;;;;;;;4.63;2.42;;;13.40;99.90;;;;;;4954965;28;20714;-80
2022/01/02 08:21:48;;;;;;;12.73;2.95;;;13.40;99.90;;;;;;4970051;28;20189;-78
2022/01/02 08:24:14;;;;;;;2.88;2.10;;;13.40;99.90;;;;;;4955417;28;20679;-89
2022/01/02 08:26:39;;;;;;;3.47;2.70;;;13.40;99.90;;;;;;4971454;28;20186;-78
2022/01/02 08:29:05;;;;;;;7.68;3.53;;;13.40;99.90;;;;;;4971876;28;20191;-87
2022/01/02 08:31:31;;;;;;;9.30;2.90;;;13.30;99.90;;;;;;4957250;28;20241;-93
2022/01/02 08:33:58;;;;;;;3.67;2.80;;;13.40;99.90;;;;;;4957597;28;20189;-90
2022/01/02 08:36:24;;;;;;;3.13;2.33;;;13.40;99.90;;;;;;4955857;28;20195;-78
2022/01/02 08:38:50;;;;;;;7.03;2.80;;;13.40;99.90;;;;;;4971862;28;20188;-92
2022/01/02 08:41:15;;;;;;;6.63;2.90;;;13.20;99.90;;;;;;4957056;28;20590;-86
2022/01/02 08:43:42;;;;;;;3.45;2.50;;;13.20;99.90;;;;;;4957612;28;20170;-90
2022/01/02 08:46:08;;;;;;;8.25;2.97;;;13.40;99.90;;;;;;4957370;28;20254;-88
2022/01/02 08:48:34;;;;;;;5.40;2.97;;;13.30;99.90;;;;;;4957243;28;20222;-80
2022/01/02 08:51:00;;;;;;;7.68;3.45;;;13.40;99.90;;;;;;4956807;28;20171;-78
2022/01/02 08:53:27;;;;;;;12.20;4.55;;;13.40;99.90;;;;;;4956952;28;20683;-89
2022/01/02 08:55:53;;;;;;;8.77;2.85;;;13.30;99.90;;;;;;4957594;28;20594;-94
2022/01/02 08:58:19;;;;;;;6.50;3.17;;;13.30;99.90;;;;;;4957142;28;20170;-78
2022/01/02 09:00:45;;;;;;;5.90;3.38;;;13.30;99.90;;;;;;4957499;28;20285;-80
2022/01/02 09:03:11;;;;;;;3.05;2.67;;;13.30;99.90;;;;;;4958367;28;20251;-91
2022/01/02 09:05:36;;;;;;;4.53;2.80;;;13.30;99.90;;;;;;4959081;28;20174;-90
2022/01/02 09:08:02;;;;;;;7.40;3.22;;;13.30;99.90;;;;;;4958152;28;20166;-89
2022/01/02 09:10:28;;;;;;;6.25;3.33;;;13.30;99.90;;;;;;4957749;28;20250;-85
2022/01/02 09:12:53;;;;;;;5.10;2.85;;;13.40;99.90;;;;;;4956968;28;20233;-86
2022/01/02 09:15:19;;;;;;;5.45;3.13;;;13.40;99.90;;;;;;4957078;28;20174;-87
2022/01/02 09:17:45;;;;;;;3.20;2.97;;;13.40;99.90;;;;;;4954904;28;20253;-80
2022/01/02 09:20:12;;;;;;;9.95;3.58;;;13.60;99.90;;;;;;4954224;28;20269;-80
2022/01/02 09:22:39;;;;;;;11.13;3.05;;;13.50;99.90;;;;;;4955976;28;20197;-79
2022/01/02 09:25:06;;;;;;;13.73;3.60;;;13.60;99.90;;;;;;4956744;28;20175;-79
2022/01/02 09:27:31;;;;;;;4.68;3.83;;;13.40;99.90;;;;;;4956414;28;20221;-82
2022/01/02 09:29:57;;;;;;;8.05;3.20;;;13.30;99.90;;;;;;4957649;28;20269;-80
2022/01/02 09:32:23;;;;;;;4.35;3.45;;;13.20;99.90;;;;;;4956819;28;20166;-78
2022/01/02 09:34:48;;;;;;;4.25;3.38;;;13.40;99.90;;;;;;4956254;28;20187;-78
2022/01/02 09:37:14;;;;;;;5.93;3.35;;;13.50;99.90;;;;;;4972760;28;20158;-83
2022/01/02 09:39:40;;;;;;;6.53;4.15;;;13.50;99.90;;;;;;4955069;28;20199;-78
2022/01/02 09:42:05;;;;;;;5.55;3.55;;;13.50;99.90;;;;;;4955717;28;20171;-80
2022/01/02 09:44:32;;;;;;;5.07;3.35;;;13.60;99.90;;;;;;4954708;28;20595;-79
2022/01/02 09:46:58;;;;;;;4.47;3.40;;;13.70;99.90;;;;;;4969871;28;20183;-79
2022/01/02 09:49:24;;;;;;;5.13;2.85;;;13.60;99.90;;;;;;4954996;28;20202;-79
2022/01/02 09:51:50;;;;;;;3.60;2.97;;;13.60;99.90;;;;;;4971007;28;20175;-79
2022/01/02 09:54:16;;;;;;;9.77;3.40;;;13.70;99.90;;;;;;4954836;28;20178;-79
2022/01/02 09:56:42;;;;;;;7.18;3.35;;;13.80;99.90;;;;;;4969851;28;20179;-82
2022/01/02 09:59:07;;;;;;;7.85;3.60;;;13.80;99.90;;;;;;4954418;28;20261;-83
2022/01/02 10:01:33;;;;;;;6.88;3.70;;;13.70;99.90;;;;;;4955578;28;20182;-81
2022/01/02 10:03:59;;;;;;;12.50;3.30;;;13.70;99.90;;;;;;4954142;28;20167;-81
2022/01/02 10:06:48;;;;;;;4.88;2.67;;;13.70;99.90;;;;;;4955437;28;20652;-78
2022/01/02 10:09:30;;;;;;;6.15;2.97;;;13.80;99.90;;;;;;4956855;28;20310;-82
2022/01/02 10:12:21;;;;;;;5.18;3.42;;;13.80;99.90;;;;;;4955307;28;20167;-78
2022/01/02 10:15:06;;;;;;;2.55;2.35;;;13.80;99.90;;;;;;4974704;28;20639;-77
2022/01/02 10:17:53;;;;;;;7.88;3.97;;;13.80;99.90;;;;;;4959551;28;20171;-86
2022/01/02 10:20:24;;;;;;;7.88;3.05;;;13.80;99.90;;;;;;4958943;28;20214;-76
2022/01/02 10:23:16;;;;;;;4.05;3.03;;;13.70;99.90;;;;;;4957920;28;20174;-78
2022/01/02 10:25:53;;;;;;;13.88;3.15;;;13.80;99.90;;;;;;4957730;28;20174;-80
2022/01/02 10:28:33;;;;;;;4.18;3.22;;;13.90;99.90;;;;;;4958277;28;20624;-78
2022/01/02 10:31:06;;;;;;;8.85;3.65;;;13.90;99.90;;;;;;4957514;28;20167;-81
2022/01/02 10:33:52;;;;;;;9.07;3.63;;;13.90;99.90;;;;;;4958286;28;20630;-82
2022/01/02 10:36:28;;;;;;;5.75;3.20;;;13.80;99.90;;;;;;4957809;28;20298;-85
2022/01/02 10:38:58;;;;;;;6.30;3.70;;;13.80;99.90;;;;;;4959076;28;20655;-89
2022/01/02 10:41:33;;;;;;;3.70;3.03;;;13.80;99.90;;;;;;4959457;28;20189;-90
2022/01/02 10:44:32;;;;;;;6.03;3.03;;;13.70;99.90;;;;;;4958892;28;20226;-78
2022/01/02 10:47:09;;;;;;;7.68;3.00;;;13.60;99.90;;;;;;4958005;28;20167;-78
2022/01/02 10:50:04;;;;;;;10.95;3.40;;;13.50;99.90;;;;;;4957986;28;20277;-79
2022/01/02 10:52:36;;;;;;;5.85;3.05;;;13.70;99.90;;;;;;4958605;28;20178;-92
2022/01/02 10:55:12;;;;;;;7.60;3.55;;;13.70;99.90;;;;;;4958527;28;20187;-82
2022/01/02 10:57:42;;;;;;;6.55;3.45;;;13.80;99.90;;;;;;4957796;28;20217;-82
2022/01/02 11:00:09;;;;;;;7.80;3.22;;;13.90;99.90;;;;;;4960526;28;20702;-91
2022/01/02 11:02:35;;;;;;;7.55;2.78;;;13.80;99.90;;;;;;4967561;28;20162;-92
2022/01/02 11:05:12;;;;;;;8.25;2.95;;;13.90;99.90;;;;;;4967705;28;20177;-83
2022/01/02 11:07:46;;;;;;;5.07;2.78;;;13.90;99.90;;;;;;4977306;28;20654;-83
2022/01/02 11:10:14;;;;;;;5.35;2.22;;;13.90;99.90;;;;;;4977258;28;20196;-77
2022/01/02 11:12:41;;;;;;;5.57;3.35;;;13.90;99.90;;;;;;4977300;28;20508;-92
2022/01/02 11:15:13;;;;;;;7.25;3.10;;;13.90;99.90;;;;;;4976904;28;20188;-79
2022/01/02 11:17:39;;;;;;;7.32;3.65;;;13.90;99.90;;;;;;4976279;28;20233;-79
2022/01/02 11:20:20;;;;;;;5.00;2.70;;;14.00;99.90;;;;;;4976555;28;20206;-82
2022/01/02 11:23:12;;;;;;;5.38;3.10;;;14.00;99.90;;;;;;4976425;28;20201;-80
2022/01/02 11:26:00;;;;;;;7.43;2.55;;;14.20;99.90;;;;;;4974773;28;20174;-80
2022/01/02 11:28:25;;;;;;;7.80;2.75;;;14.30;99.90;;;;;;4975918;28;20170;-82
2022/01/02 11:30:53;;;;;;;7.90;2.72;;;14.20;99.90;;;;;;4975832;28;20166;-80
2022/01/02 11:33:25;;;;;;;6.70;3.13;;;14.10;99.90;;;;;;4975868;28;20193;-82
2022/01/02 11:35:51;;;;;;;10.18;3.08;;;14.20;99.90;;;;;;4976176;28;20619;-85
2022/01/02 11:38:19;;;;;;;10.38;2.88;;;14.10;99.90;;;;;;4975961;28;20201;-84
2022/01/02 11:40:55;;;;;;;7.50;2.70;;;14.20;99.90;;;;;;4976162;28;20217;-78
2022/01/02 11:43:36;;;;;;;11.88;2.97;;;14.20;99.90;;;;;;4975737;28;20220;-86
2022/01/02 11:46:19;;;;;;;5.13;3.00;;;14.30;99.90;;;;;;4976036;28;20166;-78
2022/01/02 11:49:13;;;;;;;4.95;2.88;;;14.50;99.90;;;;;;4976602;28;20200;-95
2022/01/02 11:51:50;;;;;;;4.75;2.60;;;14.40;99.90;;;;;;4976777;28;20182;-83
2022/01/02 11:54:48;;;;;;;7.95;3.78;;;14.30;99.90;;;;;;4976028;28;20177;-78
2022/01/02 11:57:20;;;;;;;11.15;3.75;;;14.30;99.90;;;;;;4991516;28;20756;-80
2022/01/02 11:59:46;;;;;;;5.55;3.28;;;14.30;99.90;;;;;;4975353;28;20205;-78
2022/01/02 12:02:25;;;;;;;12.82;4.47;;;14.20;99.90;;;;;;4975479;28;20216;-79
2022/01/02 12:05:03;;;;;;;9.60;2.63;;;14.40;99.90;;;;;;4975447;28;20174;-78
2022/01/02 12:07:53;;;;;;;12.57;3.22;;;14.40;99.90;;;;;;4975555;28;20247;-84
2022/01/02 12:10:21;;;;;;;5.10;2.60;;;14.50;99.90;;;;;;4975272;28;20193;-79
2022/01/02 12:13:26;;;;;;;5.38;2.70;;;14.50;99.90;;;;;;4975338;28;20185;-78
2022/01/02 12:15:55;;;;;;;5.13;2.30;;;14.40;99.90;;;;;;4975160;28;20184;-87
2022/01/02 12:18:26;;;;;;;5.43;2.60;;;14.30;99.90;;;;;;4975784;28;20173;-80
2022/01/02 12:20:52;;;;;;;4.93;2.30;;;14.40;99.90;;;;;;4975275;28;20208;-88
2022/01/02 12:23:35;;;;;;;6.70;2.88;;;14.40;99.90;;;;;;4975534;28;20257;-78
2022/01/02 12:26:06;;;;;;;7.75;2.92;;;14.30;99.90;;;;;;4975119;28;20166;-87
2022/01/02 12:28:44;;;;;;;5.30;1.73;;;14.30;99.90;;;;;;4989821;28;20166;-78
2022/01/02 12:31:15;;;;;;;9.57;2.80;;;14.30;99.90;;;;;;4975038;28;20645;-79
2022/01/02 12:33:42;;;;;;;12.38;2.83;;;14.50;99.90;;;;;;4989975;28;20264;-78
2022/01/02 12:36:11;;;;;;;10.82;2.38;;;14.70;99.90;;;;;;4974720;28;20170;-85
2022/01/02 12:38:49;;;;;;;6.95;2.65;;;14.90;99.90;;;;;;4974475;28;20190;-85
2022/01/02 12:41:20;;;;;;;5.40;2.60;;;15.10;99.90;;;;;;4974496;28;20209;-88
2022/01/02 12:44:01;;;;;;;4.45;2.63;;;15.10;99.90;;;;;;4975035;28;20182;-82
2022/01/02 12:46:57;;;;;;;6.78;2.08;;;15.00;99.90;;;;;;4975637;28;20157;-77
2022/01/02 12:49:25;;;;;;;4.07;2.63;;;15.20;99.90;;;;;;4975793;28;20190;-81
2022/01/02 12:51:53;;;;;;;12.60;2.75;;;15.20;99.90;;;;;;4975798;28;20169;-83
2022/01/02 12:54:22;;;;;;;12.23;2.50;;;15.30;99.90;;;;;;4976143;28;20527;-79
2022/01/02 12:56:53;;;;;;;6.35;2.38;;;15.20;99.90;;;;;;4989522;28;20177;-80
2022/01/02 12:59:24;;;;;;;4.70;2.70;;;15.30;99.90;;;;;;4975364;28;20193;-81
2022/01/02 13:01:56;;;;;;;3.40;2.40;;;15.10;99.90;;;;;;4973885;28;20174;-78